createdAt,value
2019-03-13T00:02:43.264Z,155.05
2019-03-13T00:05:38.611Z,135.70
2019-03-13T00:08:33.888Z,151.85
2019-03-13T00:11:28.729Z,155.82
2019-03-13T00:14:23.921Z,135.45
2019-03-13T00:17:19.596Z,141.15
2019-03-13T00:20:15.090Z,162.00
2019-03-13T00:23:10.675Z,158.52
2019-03-13T00:26:05.425Z,161.18
2019-03-13T00:29:00.411Z,181.02
2019-03-13T00:31:55.819Z,171.07
2019-03-13T00:34:50.728Z,189.35
2019-03-13T00:37:45.633Z,180.22
2019-03-13T00:40:40.632Z,180.48
2019-03-13T00:43:35.589Z,193.82
2019-03-13T00:46:30.807Z,186.05
2019-03-13T00:49:26.129Z,198.72
2019-03-13T00:52:21.026Z,229.78
2019-03-13T00:55:16.169Z,266.60
2019-03-13T00:58:11.220Z,221.57
2019-03-13T01:01:13.152Z,229.25
2019-03-13T01:04:26.139Z,242.95
2019-03-13T01:07:20.868Z,230.72
2019-03-13T01:10:17.017Z,227.10
2019-03-13T01:13:11.855Z,229.45
2019-03-13T01:16:06.554Z,239.78
2019-03-13T01:19:01.330Z,228.55
2019-03-13T01:21:56.229Z,215.15
2019-03-13T01:24:51.835Z,223.13
2019-03-13T01:27:46.573Z,226.80
2019-03-13T01:31:02.346Z,238.18
2019-03-13T01:34:08.372Z,212.85
2019-03-13T01:37:03.046Z,213.82
2019-03-13T01:39:58.187Z,224.82
2019-03-13T01:42:53.399Z,223.85
2019-03-13T01:45:48.904Z,209.35
2019-03-13T01:48:44.329Z,205.18
2019-03-13T01:51:39.355Z,200.57
2019-03-13T01:54:34.622Z,214.48
2019-03-13T01:57:30.512Z,206.15
2019-03-13T02:00:25.869Z,205.85
2019-03-13T02:03:20.983Z,209.90
2019-03-13T02:06:16.454Z,191.28
2019-03-13T02:09:13.052Z,196.20
2019-03-13T02:12:08.096Z,187.12
2019-03-13T02:15:03.588Z,191.95
2019-03-13T02:18:00.643Z,172.85
2019-03-13T02:20:57.017Z,156.97
2019-03-13T02:23:52.452Z,170.60
2019-03-13T02:26:47.878Z,169.85
2019-03-13T02:29:42.901Z,167.60
2019-03-13T02:32:37.761Z,213.28
2019-03-13T02:35:32.677Z,179.68
2019-03-13T02:38:27.699Z,197.57
2019-03-13T02:41:22.889Z,181.15
2019-03-13T02:44:18.099Z,212.88
2019-03-13T02:47:13.221Z,218.88
2019-03-13T02:50:09.109Z,212.70
2019-03-13T02:53:04.218Z,211.15
2019-03-13T02:55:59.334Z,196.85
2019-03-13T02:58:54.625Z,203.37
2019-03-13T03:02:07.119Z,180.52
2019-03-13T03:05:02.534Z,214.57
2019-03-13T03:07:58.598Z,212.97
2019-03-13T03:10:54.396Z,199.45
2019-03-13T03:13:49.433Z,200.15
2019-03-13T03:16:44.662Z,209.80
2019-03-13T03:19:39.917Z,176.97
2019-03-13T03:22:35.828Z,184.67
2019-03-13T03:25:31.163Z,186.43
2019-03-13T03:28:26.100Z,183.27
2019-03-13T03:31:20.782Z,185.97
2019-03-13T03:34:16.235Z,147.17
2019-03-13T03:37:11.047Z,153.23
2019-03-13T03:40:06.212Z,175.00
2019-03-13T03:43:00.925Z,171.40
2019-03-13T03:45:55.991Z,165.18
2019-03-13T03:48:51.774Z,151.60
2019-03-13T03:51:46.559Z,186.60
2019-03-13T03:54:41.336Z,168.68
2019-03-13T03:57:36.809Z,149.93
2019-03-13T04:00:31.855Z,159.60
2019-03-13T04:03:27.307Z,284.65
2019-03-13T04:06:22.934Z,156.70
2019-03-13T04:09:17.795Z,157.78
2019-03-13T04:12:12.787Z,180.55
2019-03-13T04:15:08.648Z,152.75
2019-03-13T04:18:04.333Z,183.68
2019-03-13T04:20:59.471Z,158.95
2019-03-13T04:23:54.670Z,170.02
2019-03-13T04:26:53.616Z,134.37
2019-03-13T04:29:49.337Z,121.35
2019-03-13T04:32:44.441Z,99.92
2019-03-13T04:35:39.749Z,92.05
2019-03-13T04:38:35.296Z,124.50
2019-03-13T04:41:31.115Z,119.93
2019-03-13T04:44:26.161Z,117.40
2019-03-13T04:47:25.091Z,130.47
2019-03-13T04:50:19.480Z,137.70
2019-03-13T04:53:14.459Z,160.72
2019-03-13T04:56:10.094Z,137.80
2019-03-13T04:59:05.040Z,161.18
2019-03-13T05:02:01.116Z,159.90
2019-03-13T05:04:56.559Z,170.25
2019-03-13T05:07:51.629Z,151.15
2019-03-13T05:10:47.210Z,180.85
2019-03-13T05:13:44.715Z,139.28
2019-03-13T05:16:41.521Z,133.07
2019-03-13T05:19:42.157Z,146.68
2019-03-13T05:22:39.068Z,126.00
2019-03-13T05:25:35.189Z,143.17
2019-03-13T05:28:32.546Z,152.80
2019-03-13T05:31:30.093Z,126.82
2019-03-13T05:34:28.005Z,125.30
2019-03-13T05:37:28.160Z,128.27
2019-03-13T05:40:27.844Z,132.15
2019-03-13T05:43:53.152Z,143.57
2019-03-13T05:46:59.109Z,137.03
2019-03-13T05:49:58.697Z,172.82
2019-03-13T05:52:57.046Z,158.52
2019-03-13T05:56:04.394Z,133.70
2019-03-13T05:59:05.982Z,152.07
2019-03-13T06:02:04.559Z,146.50
2019-03-13T06:05:00.588Z,184.28
2019-03-13T06:07:56.984Z,159.52
2019-03-13T06:10:55.955Z,156.95
2019-03-13T06:13:52.477Z,173.57
2019-03-13T06:16:48.256Z,166.53
2019-03-13T06:19:44.326Z,165.25
2019-03-13T06:22:40.266Z,180.70
2019-03-13T06:25:41.415Z,183.27
2019-03-13T06:28:36.756Z,183.18
2019-03-13T06:31:33.446Z,190.10
2019-03-13T06:34:30.410Z,204.95
2019-03-13T06:37:31.062Z,215.43
2019-03-13T06:40:29.099Z,208.65
2019-03-13T06:43:26.133Z,279.60
2019-03-13T06:46:22.447Z,218.88
2019-03-13T06:49:29.498Z,170.02
2019-03-13T06:52:31.522Z,151.80
2019-03-13T06:55:26.226Z,151.90
2019-03-13T06:58:28.008Z,139.95
2019-03-13T07:01:40.274Z,146.13
2019-03-13T07:04:53.254Z,178.85
2019-03-13T07:08:22.997Z,142.72
2019-03-13T07:11:31.221Z,125.72
2019-03-13T07:15:23.058Z,107.47
2019-03-13T07:18:43.544Z,107.60
2019-03-13T07:21:58.317Z,110.40
2019-03-13T07:25:14.581Z,80.90
2019-03-13T07:28:18.768Z,81.20
2019-03-13T07:31:35.655Z,62.83
2019-03-13T07:34:48.978Z,64.95
2019-03-13T07:37:53.383Z,67.53
2019-03-13T07:41:01.425Z,74.40
2019-03-13T07:44:27.499Z,71.45
2019-03-13T07:47:33.487Z,58.70
2019-03-13T07:50:45.665Z,62.60
2019-03-13T07:54:28.742Z,74.10
2019-03-13T07:57:43.615Z,56.48
2019-03-13T08:00:54.083Z,54.53
2019-03-13T08:04:05.069Z,54.35
2019-03-13T08:07:07.998Z,54.70
2019-03-13T08:10:34.132Z,51.75
2019-03-13T08:13:43.618Z,59.40
2019-03-13T08:17:29.699Z,65.20
2019-03-13T08:21:02.597Z,52.20
2019-03-13T08:24:20.518Z,48.38
2019-03-13T08:27:53.322Z,50.12
2019-03-13T08:30:58.254Z,58.48
2019-03-13T08:34:12.035Z,45.15
2019-03-13T08:37:33.892Z,48.95
2019-03-13T08:40:56.030Z,49.40
2019-03-13T08:44:27.302Z,42.93
2019-03-13T08:47:37.490Z,52.38
2019-03-13T08:51:06.691Z,48.58
2019-03-13T08:54:32.419Z,52.50
2019-03-13T08:57:41.408Z,51.68
2019-03-13T09:00:59.377Z,50.75
2019-03-13T09:04:15.421Z,47.62
2019-03-13T09:07:48.432Z,45.63
2019-03-13T09:11:01.598Z,53.30
2019-03-13T09:14:14.518Z,49.00
2019-03-13T09:17:20.907Z,50.10
2019-03-13T09:20:47.560Z,44.73
2019-03-13T09:23:59.798Z,47.00
2019-03-13T09:27:13.661Z,56.10
2019-03-13T09:30:26.878Z,50.95
2019-03-13T09:33:53.294Z,40.23
2019-03-13T09:37:15.883Z,46.60
2019-03-13T09:40:46.617Z,40.92
2019-03-13T09:44:21.010Z,44.50
2019-03-13T09:47:51.314Z,49.23
2019-03-13T09:51:17.708Z,40.17
2019-03-13T09:54:30.558Z,45.55
2019-03-13T09:57:46.974Z,44.45
2019-03-13T10:01:20.282Z,46.15
2019-03-13T10:05:17.208Z,39.48
2019-03-13T10:08:32.369Z,41.13
2019-03-13T10:11:47.754Z,51.55
2019-03-13T10:15:07.821Z,35.43
2019-03-13T10:18:22.095Z,38.00
2019-03-13T10:21:39.631Z,29.18
2019-03-13T10:25:03.814Z,32.10
2019-03-13T10:28:09.723Z,35.50
2019-03-13T10:31:20.936Z,32.83
2019-03-13T10:34:53.435Z,33.15
2019-03-13T10:38:21.709Z,31.82
2019-03-13T10:41:31.128Z,42.80
2019-03-13T10:44:38.340Z,39.98
2019-03-13T10:47:39.738Z,38.35
2019-03-13T10:54:09.794Z,29.55
2019-03-13T10:57:27.406Z,42.08
2019-03-13T11:00:31.529Z,32.67
2019-03-13T11:03:45.701Z,31.80
2019-03-13T11:06:56.113Z,43.45
2019-03-13T11:10:15.176Z,31.50
2019-03-13T11:13:22.194Z,46.00
2019-03-13T11:16:36.921Z,35.30
2019-03-13T11:19:39.125Z,32.08
2019-03-13T11:22:45.693Z,38.02
2019-03-13T11:25:58.390Z,40.67
2019-03-13T11:29:12.208Z,50.50
2019-03-13T11:32:23.743Z,30.23
2019-03-13T11:35:52.663Z,43.50
2019-03-13T11:39:12.452Z,49.90
2019-03-13T11:42:25.819Z,45.25
2019-03-13T11:45:56.757Z,40.17
2019-03-13T11:49:14.855Z,47.60
2019-03-13T11:52:31.243Z,29.15
2019-03-13T11:55:51.149Z,52.23
2019-03-13T11:59:00.755Z,44.80
2019-03-13T12:02:09.368Z,54.45
2019-03-13T12:05:34.587Z,40.40
2019-03-13T12:09:03.532Z,54.13
2019-03-13T12:12:26.360Z,42.80
2019-03-13T12:15:50.494Z,40.83
2019-03-13T12:19:05.353Z,59.35
2019-03-13T12:22:11.955Z,46.83
2019-03-13T12:25:27.098Z,66.97
2019-03-13T12:29:07.132Z,59.98
2019-03-13T12:32:20.565Z,68.55
2019-03-13T12:35:39.816Z,60.03
2019-03-13T12:38:49.402Z,67.25
2019-03-13T12:42:00.950Z,74.72
2019-03-13T12:45:17.337Z,66.10
2019-03-13T12:48:52.815Z,59.98
2019-03-13T12:52:09.451Z,63.20
2019-03-13T12:55:25.777Z,69.35
2019-03-13T12:58:38.829Z,67.37
2019-03-13T13:01:49.090Z,72.15
2019-03-13T13:05:07.524Z,74.47
2019-03-13T13:08:36.456Z,81.57
2019-03-13T13:12:01.311Z,77.42
2019-03-13T13:15:14.219Z,102.85
2019-03-13T13:18:42.321Z,109.03
2019-03-13T13:21:37.874Z,89.28
2019-03-13T13:24:32.745Z,113.12
2019-03-13T13:27:28.439Z,109.15
2019-03-13T13:30:23.250Z,110.70
2019-03-13T13:33:18.244Z,131.22
2019-03-13T13:36:13.045Z,119.10
2019-03-13T13:39:08.495Z,121.62
2019-03-13T13:42:04.598Z,103.97
2019-03-13T13:44:59.730Z,105.43
2019-03-13T13:47:54.855Z,109.45
2019-03-13T13:50:49.882Z,129.68
2019-03-13T13:53:45.308Z,160.00
2019-03-13T13:56:40.412Z,155.12
2019-03-13T13:59:35.870Z,151.32
2019-03-13T14:02:31.167Z,138.43
2019-03-13T14:05:25.983Z,176.18
2019-03-13T14:08:21.513Z,161.92
2019-03-13T14:11:19.174Z,148.40
2019-03-13T14:14:14.515Z,127.05
2019-03-13T14:17:10.315Z,158.68
2019-03-13T14:20:05.621Z,130.85
2019-03-13T14:23:01.082Z,154.82
2019-03-13T14:25:57.017Z,140.88
2019-03-13T14:28:52.261Z,126.90
2019-03-13T14:31:47.566Z,120.85
2019-03-13T14:34:42.574Z,129.63
2019-03-13T14:37:37.938Z,141.90
2019-03-13T14:40:33.239Z,124.95
2019-03-13T14:43:28.322Z,135.00
2019-03-13T14:46:24.759Z,133.75
2019-03-13T14:49:20.395Z,121.65
2019-03-13T14:52:15.187Z,115.80
2019-03-13T14:55:11.429Z,105.25
2019-03-13T14:58:06.736Z,113.03
2019-03-13T15:01:01.451Z,106.22
2019-03-13T15:03:57.963Z,109.87
2019-03-13T15:06:56.639Z,101.30
2019-03-13T15:09:51.852Z,122.42
2019-03-13T15:12:49.625Z,90.55
2019-03-13T15:15:44.883Z,95.57
2019-03-13T15:18:40.354Z,93.17
2019-03-13T15:21:35.410Z,100.60
2019-03-13T15:24:31.058Z,98.80
2019-03-13T15:27:26.786Z,124.53
2019-03-13T15:30:24.031Z,103.07
2019-03-13T15:33:19.371Z,89.40
2019-03-13T15:36:14.428Z,86.50
2019-03-13T15:39:13.255Z,91.37
2019-03-13T15:42:08.824Z,76.25
2019-03-13T15:45:03.849Z,78.75
2019-03-13T15:48:00.474Z,70.28
2019-03-13T15:50:56.185Z,91.02
2019-03-13T15:53:51.882Z,64.87
2019-03-13T15:56:47.426Z,65.47
2019-03-13T15:59:42.847Z,71.70
2019-03-13T16:02:38.831Z,66.57
2019-03-13T16:05:33.976Z,72.78
2019-03-13T16:08:30.658Z,65.60
2019-03-13T16:11:26.226Z,70.03
2019-03-13T16:14:21.363Z,63.00
2019-03-13T16:17:17.410Z,71.75
2019-03-13T16:20:14.936Z,65.35
2019-03-13T16:23:10.808Z,73.60
2019-03-13T16:26:06.752Z,67.82
2019-03-13T16:29:02.316Z,75.50
2019-03-13T16:31:59.188Z,68.70
2019-03-13T16:34:54.829Z,70.00
2019-03-13T16:37:50.627Z,59.50
2019-03-13T16:40:46.167Z,68.15
2019-03-13T16:43:42.095Z,58.68
2019-03-13T16:46:37.500Z,59.80
2019-03-13T16:49:33.545Z,57.75
2019-03-13T16:52:28.367Z,66.40
2019-03-13T16:55:24.273Z,62.05
2019-03-13T16:58:19.589Z,57.15
2019-03-13T17:01:15.072Z,69.72
2019-03-13T17:04:10.649Z,57.95
2019-03-13T17:07:05.567Z,60.58
2019-03-13T17:10:03.471Z,55.78
2019-03-13T17:12:58.475Z,80.05
2019-03-13T17:15:53.758Z,92.62
2019-03-13T17:18:49.121Z,76.28
2019-03-13T17:21:44.636Z,71.45
2019-03-13T17:24:40.039Z,70.85
2019-03-13T17:27:35.542Z,55.55
2019-03-13T17:30:31.684Z,60.70
2019-03-13T17:33:26.737Z,62.62
2019-03-13T17:36:22.087Z,65.03
2019-03-13T17:39:17.887Z,67.62
2019-03-13T17:42:13.072Z,77.62
2019-03-13T17:45:08.790Z,68.62
2019-03-13T17:48:03.952Z,72.35
2019-03-13T17:50:59.268Z,70.95
2019-03-13T17:53:54.805Z,65.57
2019-03-13T17:56:49.904Z,60.48
2019-03-13T17:59:44.748Z,59.27
2019-03-13T18:02:39.826Z,61.20
2019-03-13T18:05:35.595Z,64.03
2019-03-13T18:08:30.717Z,57.08
2019-03-13T18:11:26.321Z,53.40
2019-03-13T18:14:20.859Z,59.15
2019-03-13T18:17:16.171Z,70.70
2019-03-13T18:20:13.158Z,81.08
2019-03-13T18:23:08.584Z,121.92
2019-03-13T18:26:03.895Z,118.80
2019-03-13T18:28:58.878Z,125.62
2019-03-13T18:31:54.679Z,138.75
2019-03-13T18:34:49.656Z,129.68
2019-03-13T18:37:48.026Z,135.37
2019-03-13T18:40:43.351Z,111.15
2019-03-13T18:43:38.211Z,90.72
2019-03-13T18:46:33.562Z,102.27
2019-03-13T18:49:28.547Z,110.28
2019-03-13T18:52:24.222Z,94.90
2019-03-13T18:55:20.668Z,80.38
2019-03-13T18:58:15.817Z,87.60
2019-03-13T19:01:12.180Z,85.07
2019-03-13T19:04:07.005Z,69.22
2019-03-13T19:07:02.329Z,56.48
2019-03-13T19:09:57.108Z,59.77
2019-03-13T19:12:52.218Z,53.63
2019-03-13T19:15:47.095Z,50.92
2019-03-13T19:18:41.842Z,44.50
2019-03-13T19:21:36.769Z,41.48
2019-03-13T19:24:31.860Z,45.70
2019-03-13T19:27:26.856Z,43.92
2019-03-13T19:30:26.850Z,39.15
2019-03-13T19:33:22.100Z,39.83
2019-03-13T19:36:17.038Z,50.73
2019-03-13T19:39:12.495Z,39.27
2019-03-13T19:42:07.533Z,38.73
2019-03-13T19:45:02.484Z,33.63
2019-03-13T19:47:57.234Z,37.83
2019-03-13T19:50:52.480Z,40.00
2019-03-13T19:53:47.534Z,43.25
2019-03-13T19:56:42.635Z,39.58
2019-03-13T19:59:37.587Z,46.70
2019-03-13T20:02:33.179Z,42.73
2019-03-13T20:05:28.053Z,48.10
2019-03-13T20:08:23.187Z,47.85
2019-03-13T20:11:18.231Z,44.35
2019-03-13T20:14:13.434Z,52.27
2019-03-13T20:17:08.335Z,68.65
2019-03-13T20:20:02.973Z,69.20
2019-03-13T20:22:59.447Z,62.55
2019-03-13T20:25:54.622Z,61.37
2019-03-13T20:28:49.845Z,54.42
2019-03-13T20:31:45.237Z,64.70
2019-03-13T20:34:40.579Z,48.60
2019-03-13T20:37:35.580Z,52.90
2019-03-13T20:40:30.984Z,45.80
2019-03-13T20:43:25.981Z,44.45
2019-03-13T20:46:20.749Z,49.42
2019-03-13T20:49:17.222Z,33.48
2019-03-13T20:52:12.130Z,30.15
2019-03-13T20:55:07.311Z,34.75
2019-03-13T20:58:02.461Z,38.42
2019-03-13T21:00:57.620Z,31.30
2019-03-13T21:03:52.440Z,31.33
2019-03-13T21:06:47.603Z,35.58
2019-03-13T21:09:42.433Z,34.60
2019-03-13T21:12:37.344Z,34.65
2019-03-13T21:15:32.214Z,31.93
2019-03-13T21:18:27.053Z,33.53
2019-03-13T21:21:22.045Z,31.97
2019-03-13T21:24:17.158Z,41.68
2019-03-13T21:27:12.505Z,32.28
2019-03-13T21:30:08.770Z,32.28
2019-03-13T21:33:04.150Z,32.33
2019-03-13T21:35:59.132Z,34.23
2019-03-13T21:38:54.295Z,33.90
2019-03-13T21:41:50.126Z,35.78
2019-03-13T21:44:45.235Z,38.63
2019-03-13T21:47:39.805Z,35.73
2019-03-13T21:50:34.713Z,32.23
2019-03-13T21:53:29.850Z,31.07
2019-03-13T21:56:24.762Z,33.92
2019-03-13T21:59:19.617Z,33.80
2019-03-13T22:02:15.085Z,34.50
2019-03-13T22:05:24.644Z,31.93
2019-03-13T22:08:05.157Z,33.45
2019-03-13T22:11:00.424Z,34.10
2019-03-13T22:13:55.567Z,36.40
2019-03-13T22:16:53.665Z,35.90
2019-03-13T22:19:48.467Z,40.83
2019-03-13T22:22:43.341Z,37.28
2019-03-13T22:25:38.353Z,36.28
2019-03-13T22:28:33.194Z,42.15
2019-03-13T22:31:27.960Z,42.38
2019-03-13T22:34:22.963Z,47.48
2019-03-13T22:37:18.078Z,37.98
2019-03-13T22:40:13.249Z,35.45
2019-03-13T22:43:08.457Z,43.08
2019-03-13T22:46:03.406Z,39.35
2019-03-13T22:48:58.722Z,81.78
2019-03-13T22:51:53.827Z,47.35
2019-03-13T22:54:48.741Z,47.67
2019-03-13T22:57:43.796Z,38.17
2019-03-13T23:01:01.293Z,48.80
2019-03-13T23:03:57.109Z,45.88
2019-03-13T23:06:52.224Z,48.92
2019-03-13T23:09:48.187Z,50.70
2019-03-13T23:12:43.240Z,52.55
2019-03-13T23:15:38.722Z,48.73
2019-03-13T23:18:33.675Z,49.88
2019-03-13T23:21:28.740Z,61.10
2019-03-13T23:24:23.706Z,52.75
2019-03-13T23:27:18.820Z,54.90
2019-03-13T23:30:13.725Z,52.27
2019-03-13T23:33:08.953Z,56.77
2019-03-13T23:36:03.919Z,54.23
2019-03-13T23:38:58.851Z,53.35
2019-03-13T23:41:54.227Z,51.05
2019-03-13T23:44:49.365Z,54.20
2019-03-13T23:47:44.668Z,49.03
2019-03-13T23:50:39.745Z,56.80
2019-03-13T23:53:34.935Z,55.58
2019-03-13T23:56:29.826Z,54.48
2019-03-13T23:59:24.541Z,48.73
